createdAt,value
2023-03-23T15:59:12.247Z,96952.88
2023-03-23T16:01:13.860Z,96958.03
2023-03-23T16:03:15.468Z,96959.81
2023-03-23T16:05:16.807Z,96964.97
2023-03-23T16:07:18.106Z,96965.09
2023-03-23T16:09:19.445Z,96970.31
2023-03-23T16:11:21.022Z,96958.44
2023-03-23T16:13:23.575Z,96970.41
2023-03-23T16:15:24.924Z,96970.34
2023-03-23T16:17:26.427Z,96976.53
2023-03-23T16:19:27.954Z,96971.84
2023-03-23T16:21:29.298Z,96968.38
2023-03-23T16:23:30.630Z,96978.75
2023-03-23T16:25:32.154Z,96970.88
2023-03-23T16:27:33.461Z,96972.31
2023-03-23T16:31:41.821Z,96979.81
2023-03-23T16:33:43.153Z,96986.69
2023-03-23T16:35:44.620Z,96981.69
2023-03-23T16:37:46.232Z,96985.38
2023-03-23T16:39:47.564Z,96973.00
2023-03-23T16:41:48.897Z,96971.75
2023-03-23T16:43:50.234Z,96957.50
2023-03-23T16:45:51.783Z,96963.72
2023-03-23T16:47:55.848Z,96975.09
2023-03-23T16:49:57.194Z,96984.94
2023-03-23T16:51:58.644Z,96982.03
2023-03-23T16:53:59.944Z,96985.31
2023-03-23T16:56:01.251Z,96982.97
2023-03-23T17:00:08.091Z,96988.16
2023-03-23T17:02:09.385Z,96985.59
2023-03-23T17:04:11.319Z,96992.50
2023-03-23T17:06:12.660Z,96998.53
2023-03-23T17:08:13.992Z,97006.47
2023-03-23T17:10:15.300Z,97004.81
2023-03-23T17:12:16.639Z,96998.31
2023-03-23T17:14:18.076Z,97011.50
2023-03-23T17:16:19.431Z,97009.75
2023-03-23T17:18:21.090Z,96997.78
2023-03-23T17:20:22.471Z,97003.66
2023-03-23T17:22:23.791Z,97004.81
2023-03-23T17:24:25.124Z,96998.41
2023-03-23T17:26:26.498Z,97003.19
2023-03-23T17:28:27.900Z,97005.72
2023-03-23T17:30:29.214Z,97016.47
2023-03-23T17:32:30.569Z,97023.16
2023-03-23T17:34:32.588Z,97013.19
2023-03-23T17:36:33.925Z,97031.44
2023-03-23T17:38:35.443Z,97019.78
2023-03-23T17:40:36.745Z,97034.81
2023-03-23T17:42:38.110Z,97043.38
2023-03-23T17:44:39.462Z,97044.59
2023-03-23T17:46:41.062Z,96913.75
2023-03-23T17:48:42.403Z,97061.47
2023-03-23T17:50:43.712Z,97063.84
2023-03-23T17:52:45.362Z,97069.56
2023-03-23T17:54:47.107Z,97058.97
2023-03-23T17:56:48.585Z,97056.88
2023-03-23T17:58:49.893Z,97060.72
2023-03-23T18:00:57.636Z,97057.53
2023-03-23T18:02:59.033Z,97053.38
2023-03-23T18:05:00.554Z,97059.88
2023-03-23T18:07:02.214Z,97052.53
2023-03-23T18:09:04.635Z,97057.75
2023-03-23T18:11:05.970Z,97057.25
2023-03-23T18:13:07.289Z,97045.97
2023-03-23T18:15:08.961Z,97050.88
2023-03-23T18:17:10.360Z,97043.41
2023-03-23T18:19:11.690Z,97061.22
2023-03-23T18:21:13.013Z,97053.75
2023-03-23T18:23:14.349Z,97054.50
2023-03-23T18:25:15.769Z,97065.09
2023-03-23T18:27:19.980Z,97059.06
2023-03-23T18:29:21.271Z,97068.91
2023-03-23T18:31:22.771Z,97072.63
2023-03-23T18:33:25.814Z,97073.31
2023-03-23T18:35:27.255Z,97074.16
2023-03-23T18:37:28.764Z,97082.84
2023-03-23T18:39:32.096Z,97078.25
2023-03-23T18:41:33.424Z,97075.69
2023-03-23T18:43:34.839Z,97087.91
2023-03-23T18:45:36.233Z,97081.91
2023-03-23T18:47:38.848Z,97088.66
2023-03-23T18:49:40.310Z,97085.09
2023-03-23T18:51:41.633Z,97086.69
2023-03-23T18:53:42.919Z,97080.56
2023-03-23T18:55:44.843Z,97075.25
2023-03-23T18:57:46.289Z,97080.53
2023-03-23T18:59:47.619Z,97073.38
2023-03-23T19:01:49.740Z,97064.88
2023-03-23T19:03:51.094Z,97071.78
2023-03-23T19:05:52.598Z,97071.97
2023-03-23T19:07:54.313Z,97070.50
2023-03-23T19:09:55.900Z,97074.09
2023-03-23T19:11:57.441Z,97077.88
2023-03-23T19:14:03.090Z,97063.59
2023-03-23T19:16:05.199Z,97073.00
2023-03-23T19:18:09.619Z,97067.13
2023-03-23T19:20:14.536Z,97074.91
2023-03-23T19:22:20.906Z,97064.88
2023-03-23T19:24:22.882Z,97073.81
2023-03-23T19:26:24.404Z,97075.53
2023-03-23T19:30:32.652Z,97076.75
2023-03-23T19:32:33.990Z,97076.09
2023-03-23T19:34:37.112Z,97085.25
2023-03-23T19:36:39.460Z,97078.47
2023-03-23T19:38:41.042Z,97072.69
2023-03-23T19:40:42.876Z,97077.50
2023-03-23T19:42:44.229Z,97079.16
2023-03-23T19:44:49.005Z,97079.66
2023-03-23T19:46:50.647Z,97079.34
2023-03-23T19:48:52.478Z,97079.41
2023-03-23T19:50:55.981Z,97075.91
2023-03-23T19:52:59.250Z,97063.97
2023-03-23T19:55:01.764Z,97063.97
2023-03-23T19:57:03.708Z,97067.03
2023-03-23T19:59:05.187Z,97064.47
2023-03-23T20:01:09.862Z,97062.44
2023-03-23T20:03:11.397Z,97052.56
2023-03-23T20:05:12.979Z,97056.94
2023-03-23T20:07:14.387Z,97052.75
2023-03-23T20:09:15.736Z,97053.19
2023-03-23T20:11:17.198Z,97050.19
2023-03-23T20:13:18.766Z,97057.22
2023-03-23T20:15:20.568Z,97055.97
2023-03-23T20:17:21.871Z,97062.66
2023-03-23T20:19:23.538Z,97063.38
2023-03-23T20:21:25.748Z,97060.47
2023-03-23T20:23:27.041Z,97071.41
2023-03-23T20:25:29.255Z,97070.44
2023-03-23T20:27:31.107Z,97073.94
2023-03-23T20:29:33.568Z,97075.25
2023-03-23T20:31:36.651Z,97070.53
2023-03-23T20:33:38.173Z,97077.81
2023-03-23T20:35:40.244Z,97078.81
2023-03-23T20:37:41.654Z,97082.34
2023-03-23T20:39:43.008Z,97077.47
2023-03-23T20:41:44.327Z,97083.19
2023-03-23T20:43:45.887Z,97078.03
2023-03-23T20:45:47.421Z,97081.50
2023-03-23T20:47:48.794Z,97081.63
2023-03-23T20:49:53.371Z,97087.56
2023-03-23T20:51:55.441Z,97077.72
2023-03-23T20:53:56.826Z,97078.00
2023-03-23T20:55:58.281Z,97083.69
2023-03-23T20:57:59.595Z,97078.91
2023-03-23T21:00:05.110Z,97068.72
2023-03-23T21:02:07.858Z,97073.66
2023-03-23T21:04:14.784Z,97071.03
2023-03-23T21:06:16.688Z,97075.22
2023-03-23T21:08:18.857Z,97072.09
2023-03-23T21:10:22.751Z,97080.44
2023-03-23T21:12:24.073Z,97073.44
2023-03-23T21:14:25.525Z,97072.19
2023-03-23T21:16:26.855Z,97072.19
2023-03-23T21:18:28.379Z,97068.00
2023-03-23T21:20:29.706Z,97071.09
2023-03-23T21:22:30.996Z,97069.41
2023-03-23T21:24:32.894Z,97069.66
2023-03-23T21:26:34.338Z,97067.69
2023-03-23T21:28:35.665Z,97070.94
2023-03-23T21:30:36.961Z,97076.72
2023-03-23T21:32:38.283Z,97069.84
2023-03-23T21:34:39.660Z,97069.25
2023-03-23T21:36:41.194Z,96934.00
2023-03-23T21:38:42.637Z,97066.59
2023-03-23T21:40:44.127Z,97067.53
2023-03-23T21:42:45.574Z,97063.56
2023-03-23T21:44:49.787Z,97069.47
2023-03-23T21:46:52.493Z,97065.75
2023-03-23T21:48:53.944Z,96916.16
2023-03-23T21:50:55.251Z,97061.06
2023-03-23T21:52:56.556Z,97060.38
2023-03-23T21:54:59.457Z,97055.38
2023-03-23T21:57:02.253Z,97053.78
2023-03-23T21:59:04.715Z,97053.00
2023-03-23T22:01:06.171Z,97048.78
2023-03-23T22:03:08.513Z,97047.09
2023-03-23T22:05:10.555Z,97046.28
2023-03-23T22:07:12.648Z,97038.66
2023-03-23T22:09:13.956Z,97046.28
2023-03-23T22:11:15.597Z,97039.50
2023-03-23T22:13:19.663Z,97039.50
2023-03-23T22:15:27.642Z,97040.34
2023-03-23T22:17:31.752Z,97035.28
2023-03-23T22:19:33.127Z,97037.91
2023-03-23T22:21:34.515Z,97038.00
2023-03-23T22:23:35.888Z,97031.22
2023-03-23T22:25:37.240Z,97027.81
2023-03-23T22:27:38.576Z,97023.47
2023-03-23T22:29:39.951Z,97017.56
2023-03-23T22:31:41.448Z,97019.16
2023-03-23T22:33:42.795Z,97019.91
2023-03-23T22:35:45.152Z,97018.13
2023-03-23T22:37:48.107Z,97015.41
2023-03-23T22:39:49.506Z,97007.59
2023-03-23T22:41:50.898Z,97004.03
2023-03-23T22:43:52.216Z,97002.25
2023-03-23T22:45:53.538Z,96998.88
2023-03-23T22:47:55.092Z,96990.41
2023-03-23T22:49:56.456Z,96994.75
2023-03-23T22:51:57.768Z,96991.28
2023-03-23T22:53:59.150Z,96994.78
2023-03-23T22:56:02.264Z,96987.97
2023-03-23T22:58:03.595Z,96989.66
2023-03-23T23:00:14.091Z,96986.25
2023-03-23T23:02:15.661Z,96977.75
2023-03-23T23:04:17.650Z,96982.06
2023-03-23T23:06:18.980Z,96979.50
2023-03-23T23:08:20.565Z,96982.88
2023-03-23T23:10:22.315Z,96970.25
2023-03-23T23:12:24.247Z,96981.25
2023-03-23T23:14:25.888Z,96976.16
2023-03-23T23:16:27.788Z,96983.78
2023-03-23T23:18:30.381Z,96978.66
2023-03-23T23:20:31.791Z,96975.38
2023-03-23T23:22:33.101Z,96972.56
2023-03-23T23:24:34.426Z,96978.31
2023-03-23T23:26:36.628Z,96975.06
2023-03-23T23:28:37.972Z,96983.56
2023-03-23T23:30:39.349Z,96971.66
2023-03-23T23:32:42.846Z,96976.81
2023-03-23T23:34:44.268Z,96975.16
2023-03-23T23:36:45.739Z,96971.81
2023-03-23T23:38:47.079Z,96964.16
2023-03-23T23:40:48.524Z,96963.34
2023-03-23T23:42:49.930Z,96959.91
2023-03-23T23:44:51.259Z,96964.88
2023-03-23T23:46:52.665Z,96962.31
2023-03-23T23:48:54.130Z,96962.31
2023-03-23T23:50:55.467Z,96954.78
2023-03-23T23:52:58.689Z,96953.97
2023-03-23T23:55:00.043Z,96954.91
2023-03-23T23:57:01.452Z,96955.88
2023-03-23T23:59:02.939Z,96954.19
